Historyczne dane pomiarowe

Dodano dane terminowe – wersja testowa.

Dane z okresu 1951-2019

Wersja bazy: 1.34 [2019-03-16, lista zmian], aktualizacja planowana na 2019-04-15

Dane meteo z obszaru Polski uzyskane na podstawie danych udostępnionych przez Instytut Meteorologii i Gospodarki Wodnej – Państwowy Instytut Badawczy.

 

Wybierz Datę:    

       

TemperaturaWilgotnośćWiatrCiśnienieOpadyŚniegCzas trwania zjawisk
 Stacja t tx tn tng RH VA  wxwx mslp ppp RRR   cm mm wxwxwxwxwxwxwx
1961-08-14 14.5 18.0 11.9- 84.8- 8.0 1.7---- 2.9------------
1961-08-13 16.1 17.7 13.8- 67.3- 3.0 9.3---- 0.0------------
1961-08-12 16.6 18.5 14.4- 80.5- 6.3 5.3---- 0.0------------
1961-08-11 16.3 18.1 15.4- 96.3- 6.7 2.3---- 1.6------------
1961-08-10 18.8 23.9 14.2- 87.3- 7.3 1.3---- 3.9------------
1961-08-09 18.5 23.3 13.8- 76.5- 1.3 3.0---- 0.0------------
1961-08-08 16.1 19.7 10.9- 83.3- 5.0 2.0---- 6.8------------
1961-08-07 16.1 19.2 14.3- 88.8- 5.3 3.3---- 3.6------------
1961-08-06 17.3 20.3 15.4- 90.8- 5.0 2.3---- 1.3------------
1961-08-05 17.2 18.4 14.4- 86.3- 5.0 3.0---- 2.4------------
1961-08-04 14.4 16.4 11.6- 92.5- 6.0 5.3---- 5.3------------
1961-08-03 15.4 16.7 12.6- 78.0- 5.3 6.0---- 8.3------------
1961-08-02 15.4 17.8 12.6- 92.0- 7.0 3.3---- 4.0------------
1961-08-01 15.4 17.2 13.6- 85.3- 6.0 8.0---- 0.0------------
1961-07-31 14.5 16.3 13.4- 94.8- 8.0 11.7---- 29.0------------
1961-07-30 15.6 17.1 13.9- 86.3- 6.7 8.7---- 0.0------------
1961-07-29 15.4 17.0 13.1- 76.3- 5.7 8.0---- 0.2------------
1961-07-28 13.7 16.5 12.5- 88.3- 7.7 4.0---- 0.0------------
1961-07-27 16.2 19.6 15.5- 81.3- 8.0 5.7---- 0.4------------
1961-07-26 17.2 23.3 14.1- 89.5- 8.0 5.3---- 3.7------------
1961-07-25 16.4 19.0 14.6- 76.8- 5.3 6.0---- 0.9------------
1961-07-24 15.7 17.3 13.8- 74.3- 6.0 9.0---- 0.0------------
1961-07-23 15.8 17.7 14.3- 77.0- 7.3 9.0---- 0.0------------
1961-07-22 15.6 17.6 14.3- 83.5- 7.3 6.0---- 0.0------------
1961-07-21 16.6 17.3 14.5- 84.3- 5.7 6.3---- 0.9------------
1961-07-20 15.8 19.1 13.5- 88.3- 7.0 3.3---- 1.4------------
1961-07-19 15.6 19.3 14.1- 84.8- 5.3 5.3---- 0.5------------
1961-07-18 15.7 18.1 12.5- 89.3- 6.0 4.7---- 2.1------------
1961-07-17 15.3 17.4 12.6- 90.5- 3.7 1.7---- 10.0------------
1961-07-16 15.9 19.4 13.3- 85.3- 6.7 2.3---- 8.7------------
1961-07-15 17.3 19.2 13.4- 72.5- 4.3 3.7---- 0.1------------
1961-07-14 15.1 19.5 12.8- 81.8- 7.3 4.0---- 2.7------------
1961-07-13 19.9 27.5 16.0- 79.3- 5.7 3.3---- 4.1------------
1961-07-12 17.3 19.8 13.7- 85.5- 6.0 3.7---- 0.0------------
1961-07-11 16.3 19.0 12.5- 79.3- 6.0 2.3---- 21.0------------
1961-07-10 14.3 16.8 12.6- 77.0- 5.0 7.7---- 0.0------------
1961-07-09 15.4 17.2 14.3- 83.8- 7.3 6.3---- 3.1------------
1961-07-08 16.0 19.0 13.1- 88.3- 8.0 2.3---- 11.3------------
1961-07-07 14.5 17.1 12.7- 76.8- 5.3 5.3---- 0.8------------
1961-07-06 14.1 16.7 10.3- 80.8- 7.3 8.7---- 0.2------------
1961-07-05 12.6 16.4 10.6- 79.5- 6.0 9.7---- 1.5------------
1961-07-04 16.3 18.2 13.8- 72.5- 8.0 5.3---- 3.7------------
1961-07-03 19.4 30.4 16.7- 76.0- 1.7 7.0---- 0.0------------
1961-07-02 22.6 29.2 14.0- 64.0- 0.3 0.7---- 0.0------------
1961-07-01 18.6 21.1 12.0- 67.3- 0.0 2.0---- 0.0------------
1961-06-30 16.3 18.7 14.9- 80.3- 0.0 3.0---- 0.0------------
1961-06-29 17.7 20.5 14.1- 78.0- 3.3 4.7---- 0.0------------
1961-06-28 16.0 18.0 13.4- 69.3- 4.0 13.3---- 0.0------------
1961-06-27 19.2 25.3 16.6- 84.8- 7.0 6.7---- 11.5------------
1961-06-26 21.8 27.5 14.5- 61.8- 0.3 2.3---- 0.8------------
1961-06-25 21.2 25.5 14.0- 66.8- 1.3 5.7---- 0.0------------
1961-06-24 18.4 22.2 14.1- 71.0- 4.0 6.0---- 0.0------------
1961-06-23 16.9 19.6 14.3- 81.5- 6.3 4.3---- 0.0------------
1961-06-22 16.8 22.2 10.4- 65.5- 5.3 3.3---- 0.0------------
1961-06-21 15.4 16.7 12.5- 65.5- 4.7 3.7---- 0.0------------
1961-06-20 14.9 18.0 12.3- 69.8- 4.7 3.0---- 0.0------------
1961-06-19 15.5 18.2 13.0- 68.8- 2.7 9.7---- 0.0------------
1961-06-18 18.9 23.0 16.1- 76.5- 5.0 6.0---- 0.4------------
1961-06-17 18.2 20.9 14.8- 79.8- 5.0 2.3---- 0.0------------
1961-06-16 15.6 18.2 12.7- 79.0- 3.3 6.3---- 0.0------------
228.2 ms

 

Źródłem pochodzenia danych jest Instytut Meteorologii i Gospodarki Wodnej – Państwowy Instytut Badawczy. Dane Instytutu Meteorologii i Gospodarki Wodnej – Państwowego Instytutu Badawczego zostały przetworzone.

Dane źródłowe można odnaleźć na stronie https://dane.imgw.pl